• Join FlightAware (Why Join?)
  • Login
  • US Flag 
01:29PM EST


 

Airport Tracker/Info


-or-


 

Live Flight TrackerFlight Track Log ✈ N775NC ✈ 27-Oct-2013 ✈ KATL - KTLH

Flight Track Log - Related Links

Times and Time Zones

All times are in EDT time to prevent confusion due to time zone crossing. See the N775NC flight status page for this flight to view local times or setup timezone preferences in your user account.

Time Position Orientation Groundspeed Altitude Reporting Facility
EDT Latitude Longitude Course Direction KTS MPH feet Rate Location/Type
09:06AM 33.6333 -84.4500 178° South 162 186 2,300  Level Atlanta TRACON
09:07AM 33.6203 -84.4928 250° West 438 504 2,900 2,040 Climbing Atlanta Center
09:08AM 33.5803 -84.5625 235° Southwest 306 352 5,600 2,640 Climbing Atlanta Center
09:09AM 33.3220 -84.4201 180° South  Level Estimated
09:09AM 33.5464 -84.6369 241° Southwest 263 303 8,200  Level Atlanta Center
09:10AM 33.2170 -84.4176 178° South  Level Estimated
09:10AM 33.4878 -84.6814 212° Southwest 269 310 9,900  Level Atlanta Center
09:11AM 33.1121 -84.4142 178° South  Level FlightAware Approximate
09:11AM 33.3878 -84.6633 171° South 304 350 10,000  Level Atlanta Center
09:12AM 33.0073 -84.4109 178° South  Level FlightAware Approximate
09:12AM 33.2836 -84.6428 171° South 367 422 11,600  Level Atlanta Center
09:13AM 33.1772 -84.6219 171° South 394 453 14,600 2,940 Climbing Atlanta Center
09:14AM 33.0728 -84.5967 169° South 387 445 17,500 2,280 Climbing Atlanta Center
09:15AM 32.9581 -84.5761 171° South 387 445 19,300 1,800 Climbing Atlanta Center
09:16AM 32.8497 -84.5506 169° South 394 453 21,200 1,440 Climbing Atlanta Center
09:17AM 32.7497 -84.5231 167° South 400 460 22,200 900 Climbing Atlanta Center
09:18AM 32.6286 -84.4975 170° South 417 480 23,100 360 Climbing Atlanta Center
09:19AM 32.5056 -84.4700 169° South 437 503 23,000 -60 Descending Atlanta Center
09:21AM 32.2889 -84.4261 170° South 444 511 23,000  Level Jacksonville Center
09:22AM 32.1617 -84.4019 171° South 449 517 23,000  Level Jacksonville Center
09:23AM 32.0367 -84.3850 173° South 455 524 23,000  Level Jacksonville Center
09:24AM 31.9117 -84.3708 175° South 455 524 23,000  Level Jacksonville Center
09:25AM 31.7864 -84.3714 180° South 455 524 23,000 -300 Level Jacksonville Center
09:26AM 31.6608 -84.3889 187° South 455 524 22,500 -660 Descending Jacksonville Center
09:27AM 31.5375 -84.4039 186° South 460 529 21,700 -1,620 Descending Jacksonville Center
09:28AM 31.4183 -84.4142 184° South 453 521 19,300 -2,820 Descending Jacksonville Center
09:29AM 31.3033 -84.4172 181° South 435 501 16,100 -3,300 Descending Jacksonville Center
09:30AM 31.1928 -84.4203 181° South 413 475 12,800 -2,580 Descending Jacksonville Center
09:31AM 31.0883 -84.4136 177° South 395 455 11,000 -900 Descending Jacksonville Center
09:32AM 30.9925 -84.4025 174° South 368 423 11,000 -480 Level Jacksonville Center
09:33AM 30.9092 -84.3961 176° South 333 383 10,100 -1,500 Descending Jacksonville Center
09:34AM 30.8319 -84.3903 176° South 302 348 8,000 -2,040 Descending Jacksonville Center
09:35AM 30.7528 -84.3817 175° South 290 334 6,100 -1,500 Descending Jacksonville Center
09:36AM 30.6778 -84.3442 157° South 290 334 5,000 -1,020 Descending Jacksonville Center
09:37AM 30.6114 -84.3119 157° South 279 321 4,100 -900 Descending Jacksonville Center
09:38AM 30.5367 -84.2722 155° Southeast 274 315 3,200 -900 Descending Jacksonville Center
09:39AM 30.4703 -84.2397 157° South 269 310 2,400 -840 Descending Jacksonville Center